Hauptseite
METAR-TAF:

METAR-TAF

Flughäfen :

Larnaka, Zypern

Flughafen Larnaka

Breite: 34-53N, Länge: 033-38E, Höhe: 2 m

Beobachtung

Neuester Wetterbericht von vor 14 Minuten, um 05:00 UTC
Wind 4 kt aus Nord/Nordwest
Temperatur 12°C
Luftfeuchtigkeit 62%
Luftdruck 1016 hPa
Sichtweite 10 km oder mehr
keine Wolken unter 1500 m und keine Kumulonimbus oder Gewitterwolken

METAR: LCLK 260500Z 34004KT CAVOK 12/05 Q1016 NOSIG

Zeit: 08:14 (05:14 UTC)

Prognose

Neuester Wetterbericht von vor 5 Stunden und 44 Minuten, um 23:30 UTC
Gültige Prognose vom 26 um 00 UTC bis 26 um 24 UTC
Wind 6 kt aus Nordwest
Sichtweite 10 km oder mehr
Leicht bewölkt in der Höhe von 2500 ft
Übergehend zu
vom 26 um 08 UTC bis 26 um 12 UTC
Wind 17 kt aus Süd/Südwest
Übergehend zu
vom 26 um 15 UTC bis 26 um 18 UTC
Wind 6 kt aus Nord/Nordwest

TAF: LCLK 252330Z 2600/2624 32006KT 9999 FEW025 BECMG 2608/2612 21017KT BECMG 2615/2618 33006KT

Wetterbeobachtungen und Prognosen von mehr als 4000 Flughäfen (METAR und TAF Bericht).

Die verfügbaren Stationen werden durch gelbe und rote Markierungen auf der Karte dargestellt.

Führen Sie die Maus auf sie, um den Namen der Station zu sehen.

Darauf klicken, um die Beobachtung von Wetterbeobachtungen und Prognosen zu sehen.

Um die Karte zu ändern : klicken Sie auf den grünen Tasten mit einem schwarzen Kreuz Zum Vergrößern, auf den grünen Button mit einem Gedankenstrich zu verkleinern, oder auf die grünen Pfeile für benachbarte Karten.


METAR-TAF: